Sultan Mahmud Airport
WMKN : now visible

Airfield :











YOU CAN JOIN US ON...

 
LOGIN :

Register | Disclaimer

   EN    FR    IT 

 









Legend :    VFR   Marginal VFR   IFR   Intensive IFR   Very Intensive IFR
Visi :
Ceiling :
>= 8 km
>= 3000ft
5 to 8 km
1000 to 3000 ft
1500m to 5 km
500 to 1000 ft
800 to 1500m
200 to 500 ft
< 800m
< 200 ft
Symbols :   Thunderstorms  Fog  Heavy snow  Heavy precipitations  Wind > 20 kt






- Airport Elevation : 21 ft
- IATA code : TGG


WMKN - Sultan Mahmud

CURRENT METAR :
  • 230200Z 06005KT 340V150 9999 SCT018 29/25 Q1014

EXPIRED METARs :
  • 230100Z 05005KT 350V120 9999 SCT018 28/24 Q1013
  • 230000Z 05006KT 010V140 9999 SCT018 27/24 Q1012

TAF TAF WMKN
Valid from the 23 at 00:00 until the 24 at 00:00 UTC


222300Z 2300/2400 VRB03KT 9999 FEW018
BECMG 2304/2306 06006KT



MET'MAP, your aeronautical weather chart ! - Copyright ORBIFLY December 2007 - Disclaimer

ORBIFLY MET'MAP TEAM :

Programming & Development : Alexandra Zaïnal
Concept & original design : Baudouin d'Aumeries
Assistance for programming : Marc-Olivier Méhu
Technical & hardware support : Manuel Goepfert

Contact : metmap@orbifly.com




SOURCES & CREDITS :

   NOAA       Earth
Advisory